Patcona II — WDC2170 — position and weather

sailwx.info

Track history (hours):
 
Tides and Currents Weather Stations Pressure Air Temp Water Temp Dewpoint Dewpoint Depression Visibility Wind Speed Wind Dir Waves Ship Positions

Patcona II

Owner: Connolly-Pacific Co, long beach, CA. More information available from US FCC via Universal Licensing System and Coast Guard Vessel Documentation Center.

Last reported at 2015-May-06 05:33 UTC. Time now 2015-May-06 06:25 UTC.
Position N 33°46' W 118°13'.

; draft 9 m.

Type: Towing. MMSI: 366988960.

Date/timePositionNaut miles runAvg speedWind from/ knotsBaromVisibWave heightAir tempDewpointWater temp
2015-May-06 05:33N 33°46' W 118°13'120313537.3
2015-May-06 05:28N 29°47' W 095°06'12031320.7
2015-May-06 04:33N 33°46' W 118°13'12036351.8
2015-May-06 04:22N 29°47' W 095°06'12031485.1
2015-May-06 03:33N 33°46' W 118°13'120330723.0
2015-May-06 03:31N 29°47' W 095°06'12031252.4
2015-May-06 02:33N 33°46' W 118°13'120313370.2
2015-May-06 02:28N 29°47' W 095°06'12031322.3
2015-May-06 01:33N 33°46' W 118°13'12038595.1
2015-May-06 01:25N 29°47' W 095°06'12031394.7
2015-May-06 00:33N 33°46' W 118°13'120332327.8
2015-May-06 00:31N 29°47' W 095°06'12031253.8
2015-May-05 23:33N 33°46' W 118°13'120329670.7
2015-May-05 23:31N 29°47' W 095°06'12031253.8
2015-May-05 22:33N 33°46' W 118°13'120330942.4
2015-May-05 22:31N 29°47' W 095°06'12031248.0
2015-May-05 21:33N 33°46' W 118°13'120333843.2
2015-May-05 21:31N 29°47' W 095°06'12031251.6
2015-May-05 20:33N 33°46' W 118°13'12037456.3
2015-May-05 20:24N 29°46' W 095°06'12031434.9
2015-May-05 19:33N 33°46' W 118°13'120418288.1
2015-May-05 19:29N 29°45' W 095°06'12041288.8
2015-May-05 18:33N 33°46' W 118°13'0 0.0
2015-May-05 17:33N 33°46' W 118°13'0 0.0
2015-May-05 16:33N 33°46' W 118°13'12045535.9
2015-May-05 16:20N 29°45' W 095°06'12041544.2
2015-May-05 15:33N 33°46' W 118°13'0 0.0
2015-May-05 14:33N 33°46' W 118°13'0 0.0
2015-May-05 13:33N 33°46' W 118°13'0 0.0
2015-May-05 12:33N 33°46' W 118°13'0 0.0
2015-May-05 11:33N 33°46' W 118°13'0 0.0
2015-May-05 10:33N 33°46' W 118°13'0 0.0
2015-May-05 09:33N 33°46' W 118°13'0 0.0
2015-May-05 08:33N 33°46' W 118°13'12043682.4
2015-May-05 08:14N 29°45' W 095°06'12041788.0
2015-May-05 07:33N 33°46' W 118°13'0 0.0
2015-May-05 06:33N 33°46' W 118°13'0 0.0
2015-May-05 05:33N 33°46' W 118°13'0 0.0
2015-May-05 04:33N 33°46' W 118°13'0 0.0
2015-May-05 03:33N 33°46' W 118°13'0 0.0
2015-May-05 02:33N 33°46' W 118°13'120216271.8
2015-May-05 02:29N 29°44' W 095°08'12021298.6
2015-May-05 01:33N 33°46' W 118°13'119749526.1
2015-May-05 01:32N 29°43' W 095°15'11971226.9
2015-May-05 00:33N 33°46' W 118°13'0 0.0
2015-May-04 23:33N 33°46' W 118°13'119728917.9
2015-May-04 23:31N 29°43' W 095°15'11971248.6
2015-May-04 22:33N 33°46' W 118°13'1197148578.6
2015-May-04 22:33N 29°43' W 095°15'0 0.0
2015-May-04 21:33N 29°43' W 095°15'11974308780.5
2015-May-04 21:33N 33°46' W 118°13'0 0.0
2015-May-04 20:33N 33°46' W 118°13'11979407.8
2015-May-04 20:26N 29°43' W 095°15'11971371.3
2015-May-04 19:33N 33°46' W 118°13'119720715.2
2015-May-04 19:30N 29°43' W 095°15'11971270.3
2015-May-04 18:33N 33°46' W 118°13'11958979.0
2015-May-04 18:25N 29°45' W 095°17'11951378.1
2015-May-04 17:33N 33°46' W 118°13'11951191.6
2015-May-04 16:33N 29°45' W 095°17'1195358375.8
2015-May-04 16:33N 33°46' W 118°13'0 0.0
2015-May-04 15:33N 33°46' W 118°13'1195477833.1
2015-May-04 15:33N 29°45' W 095°17'0 0.0
2015-May-04 14:33N 29°45' W 095°17'0 0.0
2015-May-04 13:33N 29°45' W 095°17'1195390956.0
2015-May-04 13:33N 33°46' W 118°13'11981202.2
2015-May-04 12:33N 29°44' W 095°14'11982156230.3
2015-May-04 12:33N 33°46' W 118°13'0 0.0
2015-May-04 11:33N 33°46' W 118°13'0 0.0
2015-May-04 10:32N 33°46' W 118°13'0 0.0
2015-May-04 09:32N 33°46' W 118°13'0 0.0
2015-May-04 08:34N 33°46' W 118°13'0 0.0
2015-May-04 07:33N 33°46' W 118°13'0 0.0
2015-May-04 06:33N 33°46' W 118°13'0 0.0
2015-May-04 05:33N 33°46' W 118°13'0 0.0
2015-May-04 04:33N 33°46' W 118°13'0 0.0
2015-May-04 03:33N 33°46' W 118°13'0 0.0
2015-May-04 02:33N 33°46' W 118°13'0 0.0
2015-May-04 01:33N 33°46' W 118°13'0 0.0
2015-May-04 00:33N 33°46' W 118°13'0 0.0
2015-May-03 23:33N 33°46' W 118°13'0 0.0
2015-May-03 22:33N 33°46' W 118°13'0 0.0
2015-May-03 21:29N 33°46' W 118°13'0 0.0
2015-May-03 20:33N 33°46' W 118°13'0 0.0
2015-May-03 19:33N 33°46' W 118°13'0 0.0
2015-May-03 18:33N 33°46' W 118°13'0 0.0
2015-May-03 17:33N 33°46' W 118°13'0 0.0
2015-May-03 16:33N 33°46' W 118°13'12029228.6
2015-May-03 16:26N 29°44' W 095°08'12021377.5
2015-May-03 15:33N 33°46' W 118°13'120215455.6
2015-May-03 15:29N 29°44' W 095°08'12021280.3
2015-May-03 14:32N 33°46' W 118°13'0 0.0
2015-May-03 13:33N 33°46' W 118°13'0 0.0
2015-May-03 12:33N 33°46' W 118°13'0 0.0
2015-May-03 11:33N 33°46' W 118°13'0 0.0
2015-May-03 10:33N 33°46' W 118°13'0 0.0
2015-May-03 09:33N 33°46' W 118°13'0 0.0
2015-May-03 08:33N 33°46' W 118°13'12022549.1
2015-May-03 08:05N 29°44' W 095°08'2 4.4
2015-May-03 07:33N 29°45' W 095°06'12044334596.5
2015-May-03 07:33N 33°46' W 118°13'0 0.0
2015-May-03 06:30N 33°46' W 118°13'120471058.3
2015-May-03 06:29N 29°45' W 095°06'0 0.0
2015-May-03 05:23N 29°45' W 095°06'1204206406.5
2015-May-03 05:23N 33°46' W 118°13'0 0.0
2015-May-03 04:32N 33°46' W 118°13'120411843.1
2015-May-03 04:26N 29°45' W 095°06'12041374.3
2015-May-03 03:33N 33°46' W 118°13'1204394080.3
2015-May-03 03:33N 29°46' W 095°05'12041178.6
2015-May-03 02:32N 33°46' W 118°13'0 0.0
2015-May-03 01:33N 33°46' W 118°13'12032551.2
2015-May-03 01:05N 29°47' W 095°06'0 0.0
2015-May-03 00:33N 29°47' W 095°06'1203309423.0
2015-May-03 00:32N 33°46' W 118°13'12031224.1
2015-May-02 23:34N 29°47' W 095°06'12031443974.2
2015-May-02 23:33N 33°46' W 118°13'12031201.1
2015-May-02 22:33N 29°46' W 095°06'1203333268.9
2015-May-02 22:33N 33°46' W 118°13'0 0.0
2015-May-02 21:33N 33°46' W 118°13'1204722399.5
2015-May-02 21:33N 29°45' W 095°06'6 5.8
2015-May-02 20:34N 29°44' W 095°12'1199287720.6
2015-May-02 20:33N 33°46' W 118°13'0 0.0
2015-May-02 19:33N 33°46' W 118°13'1198392097.6
2015-May-02 19:33N 29°44' W 095°13'11981201.4
2015-May-02 18:33N 33°46' W 118°13'1198392099.3
2015-May-02 18:33N 29°44' W 095°13'11981201.8
2015-May-02 17:33N 33°46' W 118°13'1198308076.7
2015-May-02 17:33N 29°44' W 095°13'11981203.1
2015-May-02 16:33N 33°46' W 118°13'1198331774.5
2015-May-02 16:33N 29°44' W 095°13'11981202.4
2015-May-02 15:33N 33°46' W 118°13'11982156554.9
2015-May-02 15:33N 29°44' W 095°13'4 4.4
2015-May-02 14:33N 29°44' W 095°08'1202227787.6
2015-May-02 14:33N 33°46' W 118°13'0 0.0
2015-May-02 13:33N 33°46' W 118°13'1202618355.5
2015-May-02 13:33N 29°44' W 095°08'0 0.0
2015-May-02 12:33N 29°44' W 095°08'1202196749.5
2015-May-02 12:33N 33°46' W 118°13'0 0.0
2015-May-02 11:33N 33°46' W 118°13'1202116986.2
2015-May-02 11:33N 29°44' W 095°08'12021218.6
2015-May-02 10:33N 33°46' W 118°13'1202144282.9
2015-May-02 10:33N 29°44' W 095°08'12021211.8
2015-May-02 09:33N 33°46' W 118°13'120292095.5
2015-May-02 09:33N 29°44' W 095°08'4 4.0
2015-May-02 08:34N 29°45' W 095°04'1206271282.6
2015-May-02 08:33N 33°46' W 118°13'0 0.0
2015-May-02 07:33N 33°46' W 118°13'120733156.3
2015-May-02 07:31N 29°44' W 095°03'12071251.7
2015-May-02 06:33N 33°46' W 118°13'120732413.9
2015-May-02 06:31N 29°44' W 095°03'12071253.2
2015-May-02 05:33N 33°46' W 118°13'120732413.9
2015-May-02 05:31N 29°44' W 095°03'12071253.5
2015-May-02 04:33N 33°46' W 118°13'120732173.7
2015-May-02 04:31N 29°44' W 095°03'12071250.3
2015-May-02 03:33N 33°46' W 118°13'120734200.5
2015-May-02 03:31N 29°44' W 095°03'0 0.0
2015-May-02 02:34N 29°44' W 095°03'1207868693.8
2015-May-02 02:33N 33°46' W 118°13'0 0.0
2015-May-02 01:33N 33°46' W 118°13'1207868693.8
2015-May-02 01:33N 29°44' W 095°03'0 0.0
2015-May-02 00:34N 29°44' W 095°03'1206310242.4
2015-May-02 00:33N 33°46' W 118°13'12031207.5
2015-May-01 23:34N 29°44' W 095°08'1203100697.1
2015-May-01 23:33N 33°46' W 118°13'11971210.7
2015-May-01 22:34N 29°44' W 095°15'11971076914.0
2015-May-01 22:33N 33°46' W 118°13'11961197.8
2015-May-01 21:34N 29°44' W 095°16'11961076511.0
2015-May-01 21:33N 33°46' W 118°13'11951197.1
2015-May-01 20:34N 29°44' W 095°17'1195165522.2
2015-May-01 20:33N 33°46' W 118°13'11951202.5
2015-May-01 19:34N 29°45' W 095°17'11951433414.3
2015-May-01 19:33N 33°46' W 118°13'11951195.5
2015-May-01 18:34N 29°45' W 095°17'11951075060.8
2015-May-01 18:33N 33°46' W 118°13'11951196.2
2015-May-01 17:34N 29°45' W 095°17'11951075060.8
2015-May-01 17:33N 33°46' W 118°13'11951195.8
2015-May-01 16:34N 29°45' W 095°17'1195860048.6
2015-May-01 16:33N 33°46' W 118°13'11991200.3
2015-May-01 15:34N 29°44' W 095°13'1199287668.0
2015-May-01 15:33N 33°46' W 118°13'0 0.0
2015-May-01 14:33N 33°46' W 118°13'0 0.0
2015-May-01 13:33N 33°46' W 118°13'0 0.0
2015-May-01 12:33N 33°46' W 118°13'0 0.0
2015-May-01 11:32N 33°46' W 118°13'0 0.0
2015-May-01 10:33N 33°46' W 118°13'0 0.0
2015-May-01 09:33N 33°46' W 118°13'0 0.0
2015-May-01 08:33N 33°46' W 118°13'0 0.0
2015-May-01 07:33N 33°46' W 118°13'0 0.0
2015-May-01 06:33N 33°46' W 118°13'0 0.0
2015-May-01 05:33N 33°46' W 118°13'0 0.0
2015-May-01 04:33N 33°46' W 118°13'0 0.0
2015-May-01 03:33N 33°46' W 118°13'0 0.0
2015-May-01 02:33N 33°46' W 118°13'0 0.0
2015-May-01 01:33N 33°46' W 118°13'0 0.0
2015-May-01 00:33N 33°46' W 118°13'12023490.3
2015-May-01 00:13N 29°44' W 095°08'4 5.5
2015-Apr-30 23:33N 29°44' W 095°12'11994315772.7
2015-Apr-30 23:33N 33°46' W 118°13'11991199.3
2015-Apr-30 22:33N 29°44' W 095°13'1199105244.5
2015-Apr-30 22:33N 33°46' W 118°13'11991212.8
2015-Apr-30 21:33N 29°44' W 095°13'119982981.6
2015-Apr-30 21:33N 33°46' W 118°13'11991215.8
2015-Apr-30 20:33N 29°44' W 095°13'1199139194.5
2015-Apr-30 20:33N 33°46' W 118°13'11991209.0
2015-Apr-30 19:33N 29°44' W 095°13'1199134844.5
2015-Apr-30 19:33N 33°46' W 118°13'11991209.4
2015-Apr-30 18:33N 29°44' W 095°13'119943150.2
2015-Apr-30 18:32N 33°46' W 118°13'11991232.5
2015-Apr-30 17:33N 29°44' W 095°13'1199110641.6
2015-Apr-30 17:33N 33°46' W 118°13'11991212.8
2015-Apr-30 16:33N 29°45' W 095°12'1199863478.7
2015-Apr-30 16:33N 33°46' W 118°13'12051207.0
2015-Apr-30 15:33N 29°46' W 095°04'7 6.7
2015-Apr-30 14:33N 29°41' W 094°59'8 7.8
2015-Apr-30 13:33N 29°34' W 094°55'8 8.0
2015-Apr-30 12:33N 29°27' W 094°51'5 4.5
2015-Apr-30 11:32N 29°22' W 094°51'1223122.1
2015-Apr-30 01:31N 33°46' W 118°13'0 0.0
2015-Apr-30 00:33N 33°46' W 118°13'0 0.0
2015-Apr-29 23:33N 33°46' W 118°13'0 0.0
2015-Apr-29 22:33N 33°46' W 118°13'0 0.0
2015-Apr-29 21:33N 33°46' W 118°13'12203475.9
2015-Apr-29 21:12N 29°22' W 094°55'12201902.8
2015-Apr-29 20:33N 33°46' W 118°13'122343609.8
2015-Apr-29 20:32N 29°22' W 094°51'3 3.5
2015-Apr-29 19:33N 29°26' W 094°50'12234403513.4
2015-Apr-29 19:33N 33°46' W 118°13'12181231.7
2015-Apr-29 18:33N 29°32' W 094°54'1218548084.3
2015-Apr-29 18:33N 33°46' W 118°13'12121215.4
2015-Apr-29 17:33N 29°39' W 094°58'1212484960.7
2015-Apr-29 17:33N 33°46' W 118°13'12061209.2
2015-Apr-29 16:33N 29°44' W 095°03'1206434237.6
2015-Apr-29 16:33N 33°46' W 118°13'0 0.0
2015-Apr-29 15:33N 33°46' W 118°13'120333582.1
2015-Apr-29 15:31N 29°46' W 095°06'12031247.7
2015-Apr-29 14:33N 33°46' W 118°13'120330293.2
2015-Apr-29 14:31N 29°47' W 095°06'12031256.7
2015-Apr-29 13:33N 33°46' W 118°13'12038395.2
2015-Apr-29 13:25N 29°47' W 095°06'12031405.1
2015-Apr-29 12:33N 33°46' W 118°13'120327074.6
2015-Apr-29 12:31N 29°47' W 095°06'12031259.3
2015-Apr-29 11:33N 33°46' W 118°13'1204866590.1
2015-Apr-29 11:33N 29°46' W 095°06'0 0.4
2015-Apr-29 10:33N 29°46' W 095°06'1204541794.1
2015-Apr-29 10:33N 33°46' W 118°13'0 0.0
2015-Apr-29 09:33N 33°46' W 118°13'1204619194.2
2015-Apr-29 09:33N 29°46' W 095°06'0 0.0
2015-Apr-29 08:33N 29°46' W 095°06'1204481595.5
2015-Apr-29 08:33N 33°46' W 118°13'12041205.3
2015-Apr-29 07:33N 29°46' W 095°06'12042167179.6
2015-Apr-29 07:33N 33°46' W 118°13'12041204.3
2015-Apr-29 06:33N 29°46' W 095°06'12042167179.6
2015-Apr-29 06:33N 33°46' W 118°13'12041204.7
2015-Apr-29 05:33N 29°46' W 095°06'12044334352.7
2015-Apr-29 05:33N 33°46' W 118°13'12041205.3
2015-Apr-29 04:33N 29°46' W 095°06'12041083588.2
2015-Apr-29 04:33N 33°46' W 118°13'0 0.0
2015-Apr-29 03:33N 33°46' W 118°13'1202110978.9
2015-Apr-29 03:33N 29°44' W 095°08'12021207.0
2015-Apr-29 02:33N 33°46' W 118°13'120234353.4
2015-Apr-29 02:31N 29°44' W 095°08'12021251.7
2015-Apr-29 01:33N 33°46' W 118°13'120230061.6
2015-Apr-29 01:31N 29°44' W 095°08'12021254.7
2015-Apr-29 00:33N 33°46' W 118°13'120229854.3
2015-Apr-29 00:31N 29°44' W 095°08'12021252.6
2015-Apr-28 23:33N 33°46' W 118°13'120229649.8
2015-Apr-28 23:31N 29°44' W 095°08'12021249.3
2015-Apr-28 22:33N 33°46' W 118°13'120232305.0
2015-Apr-28 22:31N 29°44' W 095°08'12021249.3
2015-Apr-28 21:33N 33°46' W 118°13'120231142.9
2015-Apr-28 21:31N 29°44' W 095°08'12021254.4
2015-Apr-28 20:33N 33°46' W 118°13'120229649.8
2015-Apr-28 20:31N 29°44' W 095°08'12021253.3
2015-Apr-28 19:33N 33°46' W 118°13'120229649.8
2015-Apr-28 19:31N 29°44' W 095°08'12021249.7
2015-Apr-28 18:33N 33°46' W 118°13'120231368.7
2015-Apr-28 18:31N 29°44' W 095°08'12021254.0
2015-Apr-28 17:33N 33°46' W 118°13'120228668.0
2015-Apr-28 17:31N 29°44' W 095°08'12021255.8
2015-Apr-28 16:33N 33°46' W 118°13'120229649.8
2015-Apr-28 16:31N 29°44' W 095°08'12021252.6
2015-Apr-28 15:33N 33°46' W 118°13'120229249.2
2015-Apr-28 15:31N 29°44' W 095°08'12021254.0
2015-Apr-28 14:33N 33°46' W 118°13'120228859.2
2015-Apr-28 14:31N 29°44' W 095°08'12021254.4
2015-Apr-28 13:33N 33°46' W 118°13'120228668.0
2015-Apr-28 13:31N 29°44' W 095°08'12021255.8
2015-Apr-28 12:33N 33°46' W 118°13'120213117.8
2015-Apr-28 12:28N 29°44' W 095°08'12021323.4
2015-Apr-28 11:33N 33°46' W 118°13'120228479.4
2015-Apr-28 11:31N 29°44' W 095°08'12021255.8
2015-Apr-28 10:33N 33°46' W 118°13'120229052.8
2015-Apr-28 10:31N 29°44' W 095°08'12021254.0
2015-Apr-28 09:33N 33°46' W 118°13'120229052.8
2015-Apr-28 09:31N 29°44' W 095°08'4 4.3
2015-Apr-28 08:34N 29°44' W 095°03'1206482516.9
2015-Apr-28 08:33N 33°46' W 118°13'12121215.1
2015-Apr-28 07:34N 29°39' W 094°58'121263240.5
2015-Apr-28 07:32N 33°46' W 118°13'0 0.0
2015-Apr-28 06:33N 33°46' W 118°13'121014670.1
2015-Apr-28 06:28N 29°37' W 095°01'12101319.5
2015-Apr-28 05:33N 33°46' W 118°13'121070276.4
2015-Apr-28 05:32N 29°37' W 095°01'12101218.8
2015-Apr-28 04:33N 33°46' W 118°13'121148422.0
2015-Apr-28 04:31N 29°37' W 095°01'12111243.7
2015-Apr-28 03:33N 33°46' W 118°13'121144927.6
2015-Apr-28 03:31N 29°37' W 095°01'12111251.2
2015-Apr-28 02:33N 33°46' W 118°13'121137895.5
2015-Apr-28 02:31N 29°37' W 095°01'12111233.5
2015-Apr-28 01:32N 33°46' W 118°13'121163159.1
2015-Apr-28 01:31N 29°37' W 095°01'12111248.3
2015-Apr-28 00:33N 33°46' W 118°13'121139981.5
2015-Apr-28 00:31N 29°37' W 095°01'12111255.5
2015-Apr-27 23:33N 33°46' W 118°13'121132766.6
2015-Apr-27 23:31N 29°37' W 095°01'0 0.0
2015-Apr-27 22:31N 29°37' W 095°01'121110655.2
2015-Apr-27 22:24N 33°46' W 118°13'0 0.0
2015-Apr-27 21:33N 33°46' W 118°13'121134863.8
2015-Apr-27 21:31N 29°37' W 095°01'12111253.4
2015-Apr-27 20:33N 33°46' W 118°13'12119004.1
2015-Apr-27 20:25N 29°37' W 095°01'3 3.7
2015-Apr-27 19:33N 29°38' W 094°58'12131091782.5
2015-Apr-27 19:33N 33°46' W 118°13'12081209.1
2015-Apr-27 18:33N 29°44' W 095°01'1208135906.1
2015-Apr-27 18:33N 33°46' W 118°13'12031210.7
2015-Apr-27 17:33N 29°44' W 095°07'12031443615.3
2015-Apr-27 17:33N 33°46' W 118°13'11991202.6
2015-Apr-27 16:33N 29°44' W 095°13'11994315005.4
2015-Apr-27 16:33N 33°46' W 118°13'0 0.0
2015-Apr-27 15:33N 33°46' W 118°13'119456574.9
2015-Apr-27 15:32N 29°45' W 095°17'11941213.6
2015-Apr-27 14:33N 33°46' W 118°13'119470495.0
2015-Apr-27 14:32N 29°45' W 095°17'11941225.1
2015-Apr-27 13:33N 33°46' W 118°13'119515867.9
2015-Apr-27 13:29N 29°45' W 095°17'0 0.0
2015-Apr-27 12:32N 29°45' W 095°17'11943484.8
2015-Apr-27 12:11N 33°46' W 118°13'11941814.4
2015-Apr-27 11:32N 29°45' W 095°17'1194215009.4
2015-Apr-27 11:32N 33°46' W 118°13'11981238.9
2015-Apr-27 10:34N 29°43' W 095°13'1198479331.3
2015-Apr-27 10:33N 33°46' W 118°13'0 0.0
2015-Apr-27 09:33N 33°46' W 118°13'12044334264.6
2015-Apr-27 09:33N 29°45' W 095°06'4 3.9
2015-Apr-27 08:34N 29°44' W 095°02'120892518.0
2015-Apr-27 08:33N 33°46' W 118°13'12131229.1
2015-Apr-27 07:34N 29°38' W 094°58'1213118024.3
2015-Apr-27 07:33N 33°46' W 118°13'0 0.0
2015-Apr-27 06:33N 33°46' W 118°13'121136953.8
2015-Apr-27 06:31N 29°37' W 095°00'12111252.0
2015-Apr-27 05:33N 33°46' W 118°13'121138933.7
2015-Apr-27 05:32N 29°37' W 095°00'12111246.9
2015-Apr-27 04:33N 33°46' W 118°13'121141137.5
2015-Apr-27 04:31N 29°37' W 095°00'12111223.2
2015-Apr-27 03:32N 33°46' W 118°13'1211114752.0
2015-Apr-27 03:31N 29°37' W 095°00'0 0.0
2015-Apr-27 02:31N 29°37' W 095°00'121120764.5
2015-Apr-27 02:28N 33°46' W 118°13'12111286.3
2015-Apr-27 01:31N 29°37' W 095°00'121171484.8
2015-Apr-27 01:30N 33°46' W 118°13'0 0.0
2015-Apr-27 00:33N 33°46' W 118°13'121114682.0
2015-Apr-27 00:28N 29°37' W 095°00'12111307.9
2015-Apr-26 23:33N 33°46' W 118°13'121150704.3
2015-Apr-26 23:31N 29°37' W 095°00'12111248.4
2015-Apr-26 22:33N 33°46' W 118°13'1211101412.2
2015-Apr-26 22:33N 29°37' W 095°00'12111205.3
2015-Apr-26 21:32N 33°46' W 118°13'121127085.4
2015-Apr-26 21:30N 29°37' W 095°00'12111290.2
2015-Apr-26 20:33N 33°46' W 118°13'1211101412.8
2015-Apr-26 20:32N 29°37' W 095°00'2 2.2
2015-Apr-26 19:33N 29°37' W 094°58'12131456014.6
2015-Apr-26 19:33N 33°46' W 118°13'12101211.0
2015-Apr-26 18:33N 29°42' W 094°60'12101452018.4
2015-Apr-26 18:33N 33°46' W 118°13'0 0.0
2015-Apr-26 17:33N 33°46' W 118°13'1206482291.9
2015-Apr-26 17:33N 29°45' W 095°04'12061205.4
2015-Apr-26 16:33N 33°46' W 118°13'120346586.6
2015-Apr-26 16:32N 29°46' W 095°06'12031234.7
2015-Apr-26 15:33N 33°46' W 118°13'120315812.2
2015-Apr-26 15:29N 29°46' W 095°06'0 0.0
2015-Apr-26 14:32N 29°46' W 095°06'120336104.6
2015-Apr-26 14:30N 33°46' W 118°13'0 0.0
2015-Apr-26 13:31N 33°46' W 118°13'120339032.0
2015-Apr-26 13:29N 29°46' W 095°06'12031305.8
2015-Apr-26 12:33N 33°46' W 118°13'120340873.0
2015-Apr-26 12:32N 29°46' W 095°06'0 0.0
2015-Apr-26 11:32N 29°46' W 095°06'120396279.0
2015-Apr-26 11:31N 33°46' W 118°13'12031106.9
2015-Apr-26 10:26N 29°46' W 095°06'120340873.1
2015-Apr-26 10:24N 33°46' W 118°13'0 0.0
2015-Apr-26 09:32N 33°46' W 118°13'120322802.9
2015-Apr-26 09:29N 29°46' W 095°06'12031301.5
2015-Apr-26 08:33N 33°46' W 118°13'120315640.9
2015-Apr-26 08:29N 29°46' W 095°06'0 0.0
2015-Apr-26 07:32N 29°46' W 095°06'1203196934.3
2015-Apr-26 07:31N 33°46' W 118°13'0 0.0
2015-Apr-26 06:32N 33°46' W 118°13'1203333252.9
2015-Apr-26 06:32N 29°46' W 095°06'  
Track history (hours):
 
Tides and Currents Weather Stations Pressure Air Temp Water Temp Dewpoint Dewpoint Depression Visibility Wind Speed Wind Dir Waves Ship Positions

Patcona II

Owner: Connolly-Pacific Co, long beach, CA. More information available from US FCC via Universal Licensing System and Coast Guard Vessel Documentation Center.

Last reported at 2015-May-06 05:33 UTC. Time now 2015-May-06 06:25 UTC.
Position N 33°46' W 118°13'.

; draft 9 m.

Type: Towing. MMSI: 366988960.

Date/timePositionNaut miles runAvg speedWind from/ knotsBaromVisibWave heightAir tempDewpointWater temp
2015-May-06 05:33N 33°46' W 118°13'120313537.3
2015-May-06 05:28N 29°47' W 095°06'12031320.7
2015-May-06 04:33N 33°46' W 118°13'12036351.8
2015-May-06 04:22N 29°47' W 095°06'12031485.1
2015-May-06 03:33N 33°46' W 118°13'120330723.0
2015-May-06 03:31N 29°47' W 095°06'12031252.4
2015-May-06 02:33N 33°46' W 118°13'120313370.2
2015-May-06 02:28N 29°47' W 095°06'12031322.3
2015-May-06 01:33N 33°46' W 118°13'12038595.1
2015-May-06 01:25N 29°47' W 095°06'12031394.7
2015-May-06 00:33N 33°46' W 118°13'120332327.8
2015-May-06 00:31N 29°47' W 095°06'12031253.8
2015-May-05 23:33N 33°46' W 118°13'120329670.7
2015-May-05 23:31N 29°47' W 095°06'12031253.8
2015-May-05 22:33N 33°46' W 118°13'120330942.4
2015-May-05 22:31N 29°47' W 095°06'12031248.0
2015-May-05 21:33N 33°46' W 118°13'120333843.2
2015-May-05 21:31N 29°47' W 095°06'12031251.6
2015-May-05 20:33N 33°46' W 118°13'12037456.3
2015-May-05 20:24N 29°46' W 095°06'12031434.9
2015-May-05 19:33N 33°46' W 118°13'120418288.1
2015-May-05 19:29N 29°45' W 095°06'12041288.8
2015-May-05 18:33N 33°46' W 118°13'0 0.0
2015-May-05 17:33N 33°46' W 118°13'0 0.0
2015-May-05 16:33N 33°46' W 118°13'12045535.9
2015-May-05 16:20N 29°45' W 095°06'12041544.2
2015-May-05 15:33N 33°46' W 118°13'0 0.0
2015-May-05 14:33N 33°46' W 118°13'0 0.0
2015-May-05 13:33N 33°46' W 118°13'0 0.0
2015-May-05 12:33N 33°46' W 118°13'0 0.0
2015-May-05 11:33N 33°46' W 118°13'0 0.0
2015-May-05 10:33N 33°46' W 118°13'0 0.0
2015-May-05 09:33N 33°46' W 118°13'0 0.0
2015-May-05 08:33N 33°46' W 118°13'12043682.4
2015-May-05 08:14N 29°45' W 095°06'12041788.0
2015-May-05 07:33N 33°46' W 118°13'0 0.0
2015-May-05 06:33N 33°46' W 118°13'0 0.0
2015-May-05 05:33N 33°46' W 118°13'0 0.0
2015-May-05 04:33N 33°46' W 118°13'0 0.0
2015-May-05 03:33N 33°46' W 118°13'0 0.0
2015-May-05 02:33N 33°46' W 118°13'120216271.8
2015-May-05 02:29N 29°44' W 095°08'12021298.6
2015-May-05 01:33N 33°46' W 118°13'119749526.1
2015-May-05 01:32N 29°43' W 095°15'11971226.9
2015-May-05 00:33N 33°46' W 118°13'0 0.0
2015-May-04 23:33N 33°46' W 118°13'119728917.9
2015-May-04 23:31N 29°43' W 095°15'11971248.6
2015-May-04 22:33N 33°46' W 118°13'1197148578.6
2015-May-04 22:33N 29°43' W 095°15'0 0.0
2015-May-04 21:33N 29°43' W 095°15'11974308780.5
2015-May-04 21:33N 33°46' W 118°13'0 0.0
2015-May-04 20:33N 33°46' W 118°13'11979407.8
2015-May-04 20:26N 29°43' W 095°15'11971371.3
2015-May-04 19:33N 33°46' W 118°13'119720715.2
2015-May-04 19:30N 29°43' W 095°15'11971270.3
2015-May-04 18:33N 33°46' W 118°13'11958979.0
2015-May-04 18:25N 29°45' W 095°17'11951378.1
2015-May-04 17:33N 33°46' W 118°13'11951191.6
2015-May-04 16:33N 29°45' W 095°17'1195358375.8
2015-May-04 16:33N 33°46' W 118°13'0 0.0
2015-May-04 15:33N 33°46' W 118°13'1195477833.1
2015-May-04 15:33N 29°45' W 095°17'0 0.0
2015-May-04 14:33N 29°45' W 095°17'0 0.0
2015-May-04 13:33N 29°45' W 095°17'1195390956.0
2015-May-04 13:33N 33°46' W 118°13'11981202.2
2015-May-04 12:33N 29°44' W 095°14'11982156230.3
2015-May-04 12:33N 33°46' W 118°13'0 0.0
2015-May-04 11:33N 33°46' W 118°13'0 0.0
2015-May-04 10:32N 33°46' W 118°13'0 0.0
2015-May-04 09:32N 33°46' W 118°13'0 0.0
2015-May-04 08:34N 33°46' W 118°13'0 0.0
2015-May-04 07:33N 33°46' W 118°13'0 0.0
2015-May-04 06:33N 33°46' W 118°13'0 0.0
2015-May-04 05:33N 33°46' W 118°13'0 0.0
2015-May-04 04:33N 33°46' W 118°13'0 0.0
2015-May-04 03:33N 33°46' W 118°13'0 0.0
2015-May-04 02:33N 33°46' W 118°13'0 0.0
2015-May-04 01:33N 33°46' W 118°13'0 0.0
2015-May-04 00:33N 33°46' W 118°13'0 0.0
2015-May-03 23:33N 33°46' W 118°13'0 0.0
2015-May-03 22:33N 33°46' W 118°13'0 0.0
2015-May-03 21:29N 33°46' W 118°13'0 0.0
2015-May-03 20:33N 33°46' W 118°13'0 0.0
2015-May-03 19:33N 33°46' W 118°13'0 0.0
2015-May-03 18:33N 33°46' W 118°13'0 0.0
2015-May-03 17:33N 33°46' W 118°13'0 0.0
2015-May-03 16:33N 33°46' W 118°13'12029228.6
2015-May-03 16:26N 29°44' W 095°08'12021377.5
2015-May-03 15:33N 33°46' W 118°13'120215455.6
2015-May-03 15:29N 29°44' W 095°08'12021280.3
2015-May-03 14:32N 33°46' W 118°13'0 0.0
2015-May-03 13:33N 33°46' W 118°13'0 0.0
2015-May-03 12:33N 33°46' W 118°13'0 0.0
2015-May-03 11:33N 33°46' W 118°13'0 0.0
2015-May-03 10:33N 33°46' W 118°13'0 0.0
2015-May-03 09:33N 33°46' W 118°13'0 0.0
2015-May-03 08:33N 33°46' W 118°13'12022549.1
2015-May-03 08:05N 29°44' W 095°08'2 4.4
2015-May-03 07:33N 29°45' W 095°06'12044334596.5
2015-May-03 07:33N 33°46' W 118°13'0 0.0
2015-May-03 06:30N 33°46' W 118°13'120471058.3
2015-May-03 06:29N 29°45' W 095°06'0 0.0
2015-May-03 05:23N 29°45' W 095°06'1204206406.5
2015-May-03 05:23N 33°46' W 118°13'0 0.0
2015-May-03 04:32N 33°46' W 118°13'120411843.1
2015-May-03 04:26N 29°45' W 095°06'12041374.3
2015-May-03 03:33N 33°46' W 118°13'1204394080.3
2015-May-03 03:33N 29°46' W 095°05'12041178.6
2015-May-03 02:32N 33°46' W 118°13'0 0.0
2015-May-03 01:33N 33°46' W 118°13'12032551.2
2015-May-03 01:05N 29°47' W 095°06'0 0.0
2015-May-03 00:33N 29°47' W 095°06'1203309423.0
2015-May-03 00:32N 33°46' W 118°13'12031224.1
2015-May-02 23:34N 29°47' W 095°06'12031443974.2
2015-May-02 23:33N 33°46' W 118°13'12031201.1
2015-May-02 22:33N 29°46' W 095°06'1203333268.9
2015-May-02 22:33N 33°46' W 118°13'0 0.0
2015-May-02 21:33N 33°46' W 118°13'1204722399.5
2015-May-02 21:33N 29°45' W 095°06'6 5.8
2015-May-02 20:34N 29°44' W 095°12'1199287720.6
2015-May-02 20:33N 33°46' W 118°13'0 0.0
2015-May-02 19:33N 33°46' W 118°13'1198392097.6
2015-May-02 19:33N 29°44' W 095°13'11981201.4
2015-May-02 18:33N 33°46' W 118°13'1198392099.3
2015-May-02 18:33N 29°44' W 095°13'11981201.8
2015-May-02 17:33N 33°46' W 118°13'1198308076.7
2015-May-02 17:33N 29°44' W 095°13'11981203.1
2015-May-02 16:33N 33°46' W 118°13'1198331774.5
2015-May-02 16:33N 29°44' W 095°13'11981202.4
2015-May-02 15:33N 33°46' W 118°13'11982156554.9
2015-May-02 15:33N 29°44' W 095°13'4 4.4
2015-May-02 14:33N 29°44' W 095°08'1202227787.6
2015-May-02 14:33N 33°46' W 118°13'0 0.0
2015-May-02 13:33N 33°46' W 118°13'1202618355.5
2015-May-02 13:33N 29°44' W 095°08'0 0.0
2015-May-02 12:33N 29°44' W 095°08'1202196749.5
2015-May-02 12:33N 33°46' W 118°13'0 0.0
2015-May-02 11:33N 33°46' W 118°13'1202116986.2
2015-May-02 11:33N 29°44' W 095°08'12021218.6
2015-May-02 10:33N 33°46' W 118°13'1202144282.9
2015-May-02 10:33N 29°44' W 095°08'12021211.8
2015-May-02 09:33N 33°46' W 118°13'120292095.5
2015-May-02 09:33N 29°44' W 095°08'4 4.0
2015-May-02 08:34N 29°45' W 095°04'1206271282.6
2015-May-02 08:33N 33°46' W 118°13'0 0.0
2015-May-02 07:33N 33°46' W 118°13'120733156.3
2015-May-02 07:31N 29°44' W 095°03'12071251.7
2015-May-02 06:33N 33°46' W 118°13'120732413.9
2015-May-02 06:31N 29°44' W 095°03'12071253.2
2015-May-02 05:33N 33°46' W 118°13'120732413.9
2015-May-02 05:31N 29°44' W 095°03'12071253.5
2015-May-02 04:33N 33°46' W 118°13'120732173.7
2015-May-02 04:31N 29°44' W 095°03'12071250.3
2015-May-02 03:33N 33°46' W 118°13'120734200.5
2015-May-02 03:31N 29°44' W 095°03'0 0.0
2015-May-02 02:34N 29°44' W 095°03'1207868693.8
2015-May-02 02:33N 33°46' W 118°13'0 0.0
2015-May-02 01:33N 33°46' W 118°13'1207868693.8
2015-May-02 01:33N 29°44' W 095°03'0 0.0
2015-May-02 00:34N 29°44' W 095°03'1206310242.4
2015-May-02 00:33N 33°46' W 118°13'12031207.5
2015-May-01 23:34N 29°44' W 095°08'1203100697.1
2015-May-01 23:33N 33°46' W 118°13'11971210.7
2015-May-01 22:34N 29°44' W 095°15'11971076914.0
2015-May-01 22:33N 33°46' W 118°13'11961197.8
2015-May-01 21:34N 29°44' W 095°16'11961076511.0
2015-May-01 21:33N 33°46' W 118°13'11951197.1
2015-May-01 20:34N 29°44' W 095°17'1195165522.2
2015-May-01 20:33N 33°46' W 118°13'11951202.5
2015-May-01 19:34N 29°45' W 095°17'11951433414.3
2015-May-01 19:33N 33°46' W 118°13'11951195.5
2015-May-01 18:34N 29°45' W 095°17'11951075060.8
2015-May-01 18:33N 33°46' W 118°13'11951196.2
2015-May-01 17:34N 29°45' W 095°17'11951075060.8
2015-May-01 17:33N 33°46' W 118°13'11951195.8
2015-May-01 16:34N 29°45' W 095°17'1195860048.6
2015-May-01 16:33N 33°46' W 118°13'11991200.3
2015-May-01 15:34N 29°44' W 095°13'1199287668.0
2015-May-01 15:33N 33°46' W 118°13'0 0.0
2015-May-01 14:33N 33°46' W 118°13'0 0.0
2015-May-01 13:33N 33°46' W 118°13'0 0.0
2015-May-01 12:33N 33°46' W 118°13'0 0.0
2015-May-01 11:32N 33°46' W 118°13'0 0.0
2015-May-01 10:33N 33°46' W 118°13'0 0.0
2015-May-01 09:33N 33°46' W 118°13'0 0.0
2015-May-01 08:33N 33°46' W 118°13'0 0.0
2015-May-01 07:33N 33°46' W 118°13'0 0.0
2015-May-01 06:33N 33°46' W 118°13'0 0.0
2015-May-01 05:33N 33°46' W 118°13'0 0.0
2015-May-01 04:33N 33°46' W 118°13'0 0.0
2015-May-01 03:33N 33°46' W 118°13'0 0.0
2015-May-01 02:33N 33°46' W 118°13'0 0.0
2015-May-01 01:33N 33°46' W 118°13'0 0.0
2015-May-01 00:33N 33°46' W 118°13'12023490.3
2015-May-01 00:13N 29°44' W 095°08'4 5.5
2015-Apr-30 23:33N 29°44' W 095°12'11994315772.7
2015-Apr-30 23:33N 33°46' W 118°13'11991199.3
2015-Apr-30 22:33N 29°44' W 095°13'1199105244.5
2015-Apr-30 22:33N 33°46' W 118°13'11991212.8
2015-Apr-30 21:33N 29°44' W 095°13'119982981.6
2015-Apr-30 21:33N 33°46' W 118°13'11991215.8
2015-Apr-30 20:33N 29°44' W 095°13'1199139194.5
2015-Apr-30 20:33N 33°46' W 118°13'11991209.0
2015-Apr-30 19:33N 29°44' W 095°13'1199134844.5
2015-Apr-30 19:33N 33°46' W 118°13'11991209.4
2015-Apr-30 18:33N 29°44' W 095°13'119943150.2
2015-Apr-30 18:32N 33°46' W 118°13'11991232.5
2015-Apr-30 17:33N 29°44' W 095°13'1199110641.6
2015-Apr-30 17:33N 33°46' W 118°13'11991212.8
2015-Apr-30 16:33N 29°45' W 095°12'1199863478.7
2015-Apr-30 16:33N 33°46' W 118°13'12051207.0
2015-Apr-30 15:33N 29°46' W 095°04'7 6.7
2015-Apr-30 14:33N 29°41' W 094°59'8 7.8
2015-Apr-30 13:33N 29°34' W 094°55'8 8.0
2015-Apr-30 12:33N 29°27' W 094°51'5 4.5
2015-Apr-30 11:32N 29°22' W 094°51'1223122.1
2015-Apr-30 01:31N 33°46' W 118°13'0 0.0
2015-Apr-30 00:33N 33°46' W 118°13'0 0.0
2015-Apr-29 23:33N 33°46' W 118°13'0 0.0
2015-Apr-29 22:33N 33°46' W 118°13'0 0.0
2015-Apr-29 21:33N 33°46' W 118°13'12203475.9
2015-Apr-29 21:12N 29°22' W 094°55'12201902.8
2015-Apr-29 20:33N 33°46' W 118°13'122343609.8
2015-Apr-29 20:32N 29°22' W 094°51'3 3.5
2015-Apr-29 19:33N 29°26' W 094°50'12234403513.4
2015-Apr-29 19:33N 33°46' W 118°13'12181231.7
2015-Apr-29 18:33N 29°32' W 094°54'1218548084.3
2015-Apr-29 18:33N 33°46' W 118°13'12121215.4
2015-Apr-29 17:33N 29°39' W 094°58'1212484960.7
2015-Apr-29 17:33N 33°46' W 118°13'12061209.2
2015-Apr-29 16:33N 29°44' W 095°03'1206434237.6
2015-Apr-29 16:33N 33°46' W 118°13'0 0.0
2015-Apr-29 15:33N 33°46' W 118°13'120333582.1
2015-Apr-29 15:31N 29°46' W 095°06'12031247.7
2015-Apr-29 14:33N 33°46' W 118°13'120330293.2
2015-Apr-29 14:31N 29°47' W 095°06'12031256.7
2015-Apr-29 13:33N 33°46' W 118°13'12038395.2
2015-Apr-29 13:25N 29°47' W 095°06'12031405.1
2015-Apr-29 12:33N 33°46' W 118°13'120327074.6
2015-Apr-29 12:31N 29°47' W 095°06'12031259.3
2015-Apr-29 11:33N 33°46' W 118°13'1204866590.1
2015-Apr-29 11:33N 29°46' W 095°06'0 0.4
2015-Apr-29 10:33N 29°46' W 095°06'1204541794.1
2015-Apr-29 10:33N 33°46' W 118°13'0 0.0
2015-Apr-29 09:33N 33°46' W 118°13'1204619194.2
2015-Apr-29 09:33N 29°46' W 095°06'0 0.0
2015-Apr-29 08:33N 29°46' W 095°06'1204481595.5
2015-Apr-29 08:33N 33°46' W 118°13'12041205.3
2015-Apr-29 07:33N 29°46' W 095°06'12042167179.6
2015-Apr-29 07:33N 33°46' W 118°13'12041204.3
2015-Apr-29 06:33N 29°46' W 095°06'12042167179.6
2015-Apr-29 06:33N 33°46' W 118°13'12041204.7
2015-Apr-29 05:33N 29°46' W 095°06'12044334352.7
2015-Apr-29 05:33N 33°46' W 118°13'12041205.3
2015-Apr-29 04:33N 29°46' W 095°06'12041083588.2
2015-Apr-29 04:33N 33°46' W 118°13'0 0.0
2015-Apr-29 03:33N 33°46' W 118°13'1202110978.9
2015-Apr-29 03:33N 29°44' W 095°08'12021207.0
2015-Apr-29 02:33N 33°46' W 118°13'120234353.4
2015-Apr-29 02:31N 29°44' W 095°08'12021251.7
2015-Apr-29 01:33N 33°46' W 118°13'120230061.6
2015-Apr-29 01:31N 29°44' W 095°08'12021254.7
2015-Apr-29 00:33N 33°46' W 118°13'120229854.3
2015-Apr-29 00:31N 29°44' W 095°08'12021252.6
2015-Apr-28 23:33N 33°46' W 118°13'120229649.8
2015-Apr-28 23:31N 29°44' W 095°08'12021249.3
2015-Apr-28 22:33N 33°46' W 118°13'120232305.0
2015-Apr-28 22:31N 29°44' W 095°08'12021249.3
2015-Apr-28 21:33N 33°46' W 118°13'120231142.9
2015-Apr-28 21:31N 29°44' W 095°08'12021254.4
2015-Apr-28 20:33N 33°46' W 118°13'120229649.8
2015-Apr-28 20:31N 29°44' W 095°08'12021253.3
2015-Apr-28 19:33N 33°46' W 118°13'120229649.8
2015-Apr-28 19:31N 29°44' W 095°08'12021249.7
2015-Apr-28 18:33N 33°46' W 118°13'120231368.7
2015-Apr-28 18:31N 29°44' W 095°08'12021254.0
2015-Apr-28 17:33N 33°46' W 118°13'120228668.0
2015-Apr-28 17:31N 29°44' W 095°08'12021255.8
2015-Apr-28 16:33N 33°46' W 118°13'120229649.8
2015-Apr-28 16:31N 29°44' W 095°08'12021252.6
2015-Apr-28 15:33N 33°46' W 118°13'120229249.2
2015-Apr-28 15:31N 29°44' W 095°08'12021254.0
2015-Apr-28 14:33N 33°46' W 118°13'120228859.2
2015-Apr-28 14:31N 29°44' W 095°08'12021254.4
2015-Apr-28 13:33N 33°46' W 118°13'120228668.0
2015-Apr-28 13:31N 29°44' W 095°08'12021255.8
2015-Apr-28 12:33N 33°46' W 118°13'120213117.8
2015-Apr-28 12:28N 29°44' W 095°08'12021323.4
2015-Apr-28 11:33N 33°46' W 118°13'120228479.4
2015-Apr-28 11:31N 29°44' W 095°08'12021255.8
2015-Apr-28 10:33N 33°46' W 118°13'120229052.8
2015-Apr-28 10:31N 29°44' W 095°08'12021254.0
2015-Apr-28 09:33N 33°46' W 118°13'120229052.8
2015-Apr-28 09:31N 29°44' W 095°08'4 4.3
2015-Apr-28 08:34N 29°44' W 095°03'1206482516.9
2015-Apr-28 08:33N 33°46' W 118°13'12121215.1
2015-Apr-28 07:34N 29°39' W 094°58'121263240.5
2015-Apr-28 07:32N 33°46' W 118°13'0 0.0
2015-Apr-28 06:33N 33°46' W 118°13'121014670.1
2015-Apr-28 06:28N 29°37' W 095°01'12101319.5
2015-Apr-28 05:33N 33°46' W 118°13'121070276.4
2015-Apr-28 05:32N 29°37' W 095°01'12101218.8
2015-Apr-28 04:33N 33°46' W 118°13'121148422.0
2015-Apr-28 04:31N 29°37' W 095°01'12111243.7
2015-Apr-28 03:33N 33°46' W 118°13'121144927.6
2015-Apr-28 03:31N 29°37' W 095°01'12111251.2
2015-Apr-28 02:33N 33°46' W 118°13'121137895.5
2015-Apr-28 02:31N 29°37' W 095°01'12111233.5
2015-Apr-28 01:32N 33°46' W 118°13'121163159.1
2015-Apr-28 01:31N 29°37' W 095°01'12111248.3
2015-Apr-28 00:33N 33°46' W 118°13'121139981.5
2015-Apr-28 00:31N 29°37' W 095°01'12111255.5
2015-Apr-27 23:33N 33°46' W 118°13'121132766.6
2015-Apr-27 23:31N 29°37' W 095°01'0 0.0
2015-Apr-27 22:31N 29°37' W 095°01'121110655.2
2015-Apr-27 22:24N 33°46' W 118°13'0 0.0
2015-Apr-27 21:33N 33°46' W 118°13'121134863.8
2015-Apr-27 21:31N 29°37' W 095°01'12111253.4
2015-Apr-27 20:33N 33°46' W 118°13'12119004.1
2015-Apr-27 20:25N 29°37' W 095°01'3 3.7
2015-Apr-27 19:33N 29°38' W 094°58'12131091782.5
2015-Apr-27 19:33N 33°46' W 118°13'12081209.1
2015-Apr-27 18:33N 29°44' W 095°01'1208135906.1
2015-Apr-27 18:33N 33°46' W 118°13'12031210.7
2015-Apr-27 17:33N 29°44' W 095°07'12031443615.3
2015-Apr-27 17:33N 33°46' W 118°13'11991202.6
2015-Apr-27 16:33N 29°44' W 095°13'11994315005.4
2015-Apr-27 16:33N 33°46' W 118°13'0 0.0
2015-Apr-27 15:33N 33°46' W 118°13'119456574.9
2015-Apr-27 15:32N 29°45' W 095°17'11941213.6
2015-Apr-27 14:33N 33°46' W 118°13'119470495.0
2015-Apr-27 14:32N 29°45' W 095°17'11941225.1
2015-Apr-27 13:33N 33°46' W 118°13'119515867.9
2015-Apr-27 13:29N 29°45' W 095°17'0 0.0
2015-Apr-27 12:32N 29°45' W 095°17'11943484.8
2015-Apr-27 12:11N 33°46' W 118°13'11941814.4
2015-Apr-27 11:32N 29°45' W 095°17'1194215009.4
2015-Apr-27 11:32N 33°46' W 118°13'11981238.9
2015-Apr-27 10:34N 29°43' W 095°13'1198479331.3
2015-Apr-27 10:33N 33°46' W 118°13'0 0.0
2015-Apr-27 09:33N 33°46' W 118°13'12044334264.6
2015-Apr-27 09:33N 29°45' W 095°06'4 3.9
2015-Apr-27 08:34N 29°44' W 095°02'120892518.0
2015-Apr-27 08:33N 33°46' W 118°13'12131229.1
2015-Apr-27 07:34N 29°38' W 094°58'1213118024.3
2015-Apr-27 07:33N 33°46' W 118°13'0 0.0
2015-Apr-27 06:33N 33°46' W 118°13'121136953.8
2015-Apr-27 06:31N 29°37' W 095°00'12111252.0
2015-Apr-27 05:33N 33°46' W 118°13'121138933.7
2015-Apr-27 05:32N 29°37' W 095°00'12111246.9
2015-Apr-27 04:33N 33°46' W 118°13'121141137.5
2015-Apr-27 04:31N 29°37' W 095°00'12111223.2
2015-Apr-27 03:32N 33°46' W 118°13'1211114752.0
2015-Apr-27 03:31N 29°37' W 095°00'0 0.0
2015-Apr-27 02:31N 29°37' W 095°00'121120764.5
2015-Apr-27 02:28N 33°46' W 118°13'12111286.3
2015-Apr-27 01:31N 29°37' W 095°00'121171484.8
2015-Apr-27 01:30N 33°46' W 118°13'0 0.0
2015-Apr-27 00:33N 33°46' W 118°13'121114682.0
2015-Apr-27 00:28N 29°37' W 095°00'12111307.9
2015-Apr-26 23:33N 33°46' W 118°13'121150704.3
2015-Apr-26 23:31N 29°37' W 095°00'12111248.4
2015-Apr-26 22:33N 33°46' W 118°13'1211101412.2
2015-Apr-26 22:33N 29°37' W 095°00'12111205.3
2015-Apr-26 21:32N 33°46' W 118°13'121127085.4
2015-Apr-26 21:30N 29°37' W 095°00'12111290.2
2015-Apr-26 20:33N 33°46' W 118°13'1211101412.8
2015-Apr-26 20:32N 29°37' W 095°00'2 2.2
2015-Apr-26 19:33N 29°37' W 094°58'12131456014.6
2015-Apr-26 19:33N 33°46' W 118°13'12101211.0
2015-Apr-26 18:33N 29°42' W 094°60'12101452018.4
2015-Apr-26 18:33N 33°46' W 118°13'0 0.0
2015-Apr-26 17:33N 33°46' W 118°13'1206482291.9
2015-Apr-26 17:33N 29°45' W 095°04'12061205.4
2015-Apr-26 16:33N 33°46' W 118°13'120346586.6
2015-Apr-26 16:32N 29°46' W 095°06'12031234.7
2015-Apr-26 15:33N 33°46' W 118°13'120315812.2
2015-Apr-26 15:29N 29°46' W 095°06'0 0.0
2015-Apr-26 14:32N 29°46' W 095°06'120336104.6
2015-Apr-26 14:30N 33°46' W 118°13'0 0.0
2015-Apr-26 13:31N 33°46' W 118°13'120339032.0
2015-Apr-26 13:29N 29°46' W 095°06'12031305.8
2015-Apr-26 12:33N 33°46' W 118°13'120340873.0
2015-Apr-26 12:32N 29°46' W 095°06'0 0.0
2015-Apr-26 11:32N 29°46' W 095°06'120396279.0
2015-Apr-26 11:31N 33°46' W 118°13'12031106.9
2015-Apr-26 10:26N 29°46' W 095°06'120340873.1
2015-Apr-26 10:24N 33°46' W 118°13'0 0.0
2015-Apr-26 09:32N 33°46' W 118°13'120322802.9
2015-Apr-26 09:29N 29°46' W 095°06'12031301.5
2015-Apr-26 08:33N 33°46' W 118°13'120315640.9
2015-Apr-26 08:29N 29°46' W 095°06'0 0.0
2015-Apr-26 07:32N 29°46' W 095°06'1203196934.3
2015-Apr-26 07:31N 33°46' W 118°13'0 0.0
2015-Apr-26 06:32N 33°46' W 118°13'1203333252.9
2015-Apr-26 06:32N 29°46' W 095°06'  

Dump ship's entire track history